createdAt,value
2022-07-27T00:02:06.258Z,99.90
2022-07-27T00:04:35.374Z,99.90
2022-07-27T00:07:03.403Z,99.90
2022-07-27T00:09:31.186Z,99.90
2022-07-27T00:11:58.981Z,99.90
2022-07-27T00:14:26.720Z,99.90
2022-07-27T00:16:54.507Z,99.90
2022-07-27T00:19:23.805Z,99.90
2022-07-27T00:21:52.879Z,99.90
2022-07-27T00:24:20.599Z,99.90
2022-07-27T00:26:48.299Z,99.90
2022-07-27T00:29:16.046Z,99.90
2022-07-27T00:31:43.849Z,99.90
2022-07-27T00:34:11.636Z,99.90
2022-07-27T00:36:39.332Z,99.90
2022-07-27T00:39:08.726Z,99.90
2022-07-27T00:41:37.372Z,99.90
2022-07-27T00:44:06.743Z,99.90
2022-07-27T00:46:34.563Z,99.90
2022-07-27T00:49:02.525Z,99.90
2022-07-27T00:51:30.456Z,99.90
2022-07-27T00:53:58.192Z,99.90
2022-07-27T00:56:27.307Z,99.90
2022-07-27T00:58:55.042Z,99.90
2022-07-27T01:01:22.839Z,99.90
2022-07-27T01:03:50.650Z,99.90
2022-07-27T01:06:27.133Z,99.90
2022-07-27T01:09:15.937Z,99.90
2022-07-27T01:11:45.052Z,99.90
2022-07-27T01:14:13.331Z,99.90
2022-07-27T01:16:41.220Z,99.90
2022-07-27T01:19:10.185Z,99.90
2022-07-27T01:21:39.427Z,99.90
2022-07-27T01:24:07.944Z,99.90
2022-07-27T01:26:36.047Z,99.90
2022-07-27T01:29:03.795Z,99.90
2022-07-27T01:31:31.888Z,99.90
2022-07-27T01:33:59.819Z,99.90
2022-07-27T01:36:27.917Z,99.90
2022-07-27T01:38:58.165Z,99.90
2022-07-27T01:41:26.592Z,99.90
2022-07-27T01:43:54.337Z,99.90
2022-07-27T01:46:22.158Z,99.90
2022-07-27T01:48:50.112Z,99.90
2022-07-27T01:51:17.895Z,99.90
2022-07-27T01:53:45.645Z,99.90
2022-07-27T01:56:15.058Z,99.90
2022-07-27T01:58:43.461Z,99.90
2022-07-27T02:01:11.605Z,99.90
2022-07-27T02:03:39.392Z,99.90
2022-07-27T02:06:07.296Z,99.90
2022-07-27T02:08:35.095Z,99.90
2022-07-27T02:11:20.720Z,99.90
2022-07-27T02:13:50.128Z,99.90
2022-07-27T02:16:18.470Z,99.90
2022-07-27T02:18:46.444Z,99.90
2022-07-27T02:21:16.731Z,99.90
2022-07-27T02:23:46.763Z,99.90
2022-07-27T02:26:14.489Z,99.90
2022-07-27T02:28:42.275Z,99.90
2022-07-27T02:31:11.321Z,99.90
2022-07-27T02:33:39.006Z,99.90
2022-07-27T02:36:06.902Z,99.90
2022-07-27T02:38:34.630Z,99.90
2022-07-27T02:41:06.839Z,99.90
2022-07-27T02:43:34.567Z,99.90
2022-07-27T02:46:02.394Z,99.90
2022-07-27T02:48:32.328Z,99.90
2022-07-27T02:51:00.966Z,99.90
2022-07-27T02:53:28.879Z,99.90
2022-07-27T02:55:56.873Z,99.90
2022-07-27T02:58:24.570Z,99.90
2022-07-27T03:00:58.212Z,99.90
2022-07-27T03:03:35.986Z,99.90
2022-07-27T03:06:06.586Z,99.90
2022-07-27T03:08:34.376Z,99.90
2022-07-27T03:11:02.076Z,99.90
2022-07-27T03:13:29.859Z,99.90
2022-07-27T03:15:58.030Z,99.90
2022-07-27T03:18:25.874Z,99.90
2022-07-27T03:20:53.620Z,99.90
2022-07-27T03:23:22.672Z,99.90
2022-07-27T03:25:50.362Z,99.90
2022-07-27T03:28:18.092Z,99.90
2022-07-27T03:30:46.479Z,99.90
2022-07-27T03:33:14.194Z,99.90
2022-07-27T03:35:41.915Z,99.90
2022-07-27T03:38:09.727Z,99.90
2022-07-27T03:40:40.744Z,99.90
2022-07-27T03:43:08.799Z,99.90
2022-07-27T03:45:36.568Z,99.90
2022-07-27T03:48:04.435Z,99.90
2022-07-27T03:50:32.155Z,99.90
2022-07-27T03:52:59.911Z,99.90
2022-07-27T03:55:27.620Z,99.90
2022-07-27T03:57:56.664Z,99.90
2022-07-27T04:00:24.681Z,99.90
2022-07-27T04:02:52.778Z,99.90
2022-07-27T04:05:21.704Z,99.90
2022-07-27T04:07:54.625Z,99.90
2022-07-27T04:10:23.088Z,99.90
2022-07-27T04:12:52.751Z,99.90
2022-07-27T04:15:22.313Z,99.90
2022-07-27T04:17:55.778Z,99.90
2022-07-27T04:20:24.495Z,99.90
2022-07-27T04:22:52.200Z,99.90
2022-07-27T04:25:19.923Z,99.90
2022-07-27T04:27:47.667Z,99.90
2022-07-27T04:30:15.527Z,99.90
2022-07-27T04:32:44.581Z,99.90
2022-07-27T04:35:12.496Z,99.90
2022-07-27T04:37:40.204Z,99.90
2022-07-27T04:40:25.757Z,99.90
2022-07-27T04:42:53.487Z,99.90
2022-07-27T04:45:21.266Z,99.90
2022-07-27T04:47:50.356Z,99.90
2022-07-27T04:50:18.058Z,99.90
2022-07-27T04:52:46.236Z,99.90
2022-07-27T04:55:13.996Z,99.90
2022-07-27T04:57:42.221Z,99.90
2022-07-27T05:00:10.748Z,99.90
2022-07-27T05:02:40.108Z,99.90
2022-07-27T05:05:09.820Z,99.90
2022-07-27T05:07:37.579Z,99.90
2022-07-27T05:10:05.747Z,99.90
2022-07-27T05:12:33.458Z,99.90
2022-07-27T05:15:01.193Z,99.90
2022-07-27T05:17:28.975Z,99.90
2022-07-27T05:19:56.686Z,99.90
2022-07-27T05:22:25.801Z,99.90
2022-07-27T05:24:53.808Z,99.90
2022-07-27T05:27:21.510Z,99.90
2022-07-27T05:29:49.583Z,99.90
2022-07-27T05:32:17.537Z,99.90
2022-07-27T05:34:46.045Z,99.90
2022-07-27T05:37:13.970Z,99.90
2022-07-27T05:39:43.550Z,99.90
2022-07-27T05:42:11.335Z,99.90
2022-07-27T05:44:39.060Z,99.90
2022-07-27T05:47:06.837Z,99.90
2022-07-27T05:49:39.219Z,99.90
2022-07-27T05:52:07.220Z,99.90
2022-07-27T05:54:34.931Z,99.90
2022-07-27T05:57:04.029Z,99.90
2022-07-27T05:59:32.751Z,99.90
2022-07-27T06:02:00.944Z,99.90
2022-07-27T06:04:28.668Z,99.90
2022-07-27T06:07:14.268Z,99.90
2022-07-27T06:09:41.957Z,99.90
2022-07-27T06:12:11.165Z,99.90
2022-07-27T06:14:39.002Z,99.90
2022-07-27T06:17:07.612Z,99.90
2022-07-27T06:19:39.483Z,99.90
2022-07-27T06:22:07.514Z,99.90
2022-07-27T06:24:35.308Z,99.90
2022-07-27T06:27:03.156Z,99.90
2022-07-27T06:29:32.207Z,99.90
2022-07-27T06:32:00.079Z,99.90
2022-07-27T06:34:28.743Z,99.90
2022-07-27T06:36:59.228Z,99.90
2022-07-27T06:39:26.982Z,99.90
2022-07-27T06:41:58.259Z,99.90
2022-07-27T06:44:26.262Z,99.90
2022-07-27T06:46:55.386Z,99.90
2022-07-27T06:49:23.223Z,99.90
2022-07-27T06:51:51.000Z,99.90
2022-07-27T06:54:18.768Z,99.90
2022-07-27T06:56:46.602Z,99.90
2022-07-27T06:59:14.771Z,99.90
2022-07-27T07:01:48.361Z,99.90
2022-07-27T07:04:18.008Z,99.90
2022-07-27T07:06:53.255Z,99.90
2022-07-27T07:09:22.058Z,99.90
2022-07-27T07:11:49.767Z,99.90
2022-07-27T07:14:17.490Z,99.90
2022-07-27T07:16:45.230Z,99.90
2022-07-27T07:19:13.420Z,99.90
2022-07-27T07:21:42.834Z,99.90
2022-07-27T07:24:10.531Z,99.90
2022-07-27T07:26:40.502Z,99.90
2022-07-27T07:29:09.127Z,99.90
2022-07-27T07:31:37.891Z,99.90
2022-07-27T07:34:05.754Z,99.90
2022-07-27T07:36:33.477Z,99.90
2022-07-27T07:39:02.525Z,99.90
2022-07-27T07:41:30.258Z,99.90
2022-07-27T07:43:58.106Z,99.90
2022-07-27T07:46:26.044Z,99.90
2022-07-27T07:48:53.819Z,99.90
2022-07-27T07:51:21.947Z,99.90
2022-07-27T07:53:49.631Z,99.90
2022-07-27T07:56:18.757Z,99.90
2022-07-27T07:58:46.544Z,99.90
2022-07-27T08:01:14.245Z,99.90
2022-07-27T08:03:45.006Z,99.90
2022-07-27T08:06:15.192Z,99.90
2022-07-27T08:08:42.900Z,99.90
2022-07-27T08:11:10.623Z,99.90
2022-07-27T08:13:39.678Z,99.90
2022-07-27T08:16:07.549Z,99.90
2022-07-27T08:18:35.344Z,99.90
2022-07-27T08:21:03.211Z,99.60
2022-07-27T08:23:31.728Z,99.40
2022-07-27T08:26:01.847Z,98.80
2022-07-27T08:28:36.867Z,98.50
2022-07-27T08:31:15.198Z,97.90
2022-07-27T08:33:46.689Z,98.40
2022-07-27T08:36:14.399Z,97.70
2022-07-27T08:38:42.258Z,96.60
2022-07-27T08:41:11.200Z,96.30
2022-07-27T08:43:39.786Z,96.50
2022-07-27T08:46:11.193Z,96.40
2022-07-27T08:48:39.607Z,95.80
2022-07-27T08:51:07.837Z,96.80
2022-07-27T08:53:52.807Z,96.70
2022-07-27T08:56:21.913Z,96.90
2022-07-27T08:58:49.695Z,97.80
2022-07-27T09:01:18.925Z,97.90
2022-07-27T09:03:47.319Z,97.50
2022-07-27T09:06:15.044Z,98.70
2022-07-27T09:08:46.738Z,97.60
2022-07-27T09:11:17.677Z,96.60
2022-07-27T09:13:45.435Z,96.60
2022-07-27T09:16:18.055Z,95.90
2022-07-27T09:18:48.266Z,95.80
2022-07-27T09:21:17.633Z,95.30
2022-07-27T09:23:45.933Z,95.50
2022-07-27T09:26:31.290Z,95.70
2022-07-27T09:29:01.973Z,95.60
2022-07-27T09:31:30.026Z,94.20
2022-07-27T09:34:00.127Z,94.70
2022-07-27T09:36:29.095Z,94.50
2022-07-27T09:39:02.496Z,94.90
2022-07-27T09:41:39.718Z,93.60
2022-07-27T09:46:55.528Z,93.10
2022-07-27T09:49:28.798Z,93.30
2022-07-27T09:52:00.180Z,94.20
2022-07-27T09:54:29.040Z,93.10
2022-07-27T09:57:01.066Z,92.70
2022-07-27T09:59:29.615Z,92.20
2022-07-27T10:01:57.523Z,91.60
2022-07-27T10:04:25.447Z,92.20
2022-07-27T10:07:02.749Z,91.20
2022-07-27T10:09:31.316Z,90.40
2022-07-27T10:11:59.124Z,90.50
2022-07-27T10:14:26.835Z,91.00
2022-07-27T10:16:56.122Z,91.50
2022-07-27T10:19:26.731Z,91.10
2022-07-27T10:21:55.833Z,91.50
2022-07-27T10:24:28.822Z,90.50
2022-07-27T10:26:56.864Z,91.10
2022-07-27T10:29:25.233Z,90.90
2022-07-27T10:32:00.314Z,91.70
2022-07-27T10:34:35.455Z,91.10
2022-07-27T10:37:14.404Z,91.70
2022-07-27T10:39:43.077Z,92.30
2022-07-27T10:42:25.203Z,92.30
2022-07-27T10:44:54.039Z,91.80
2022-07-27T10:47:29.207Z,91.80
2022-07-27T10:50:11.786Z,91.90
2022-07-27T10:52:43.423Z,92.70
2022-07-27T10:55:35.195Z,91.70
2022-07-27T10:58:32.519Z,91.10
2022-07-27T11:01:00.723Z,88.90
2022-07-27T11:03:29.558Z,87.20
2022-07-27T11:06:02.081Z,89.50
2022-07-27T11:08:47.111Z,88.20
2022-07-27T11:11:16.518Z,87.40
2022-07-27T11:13:45.826Z,87.90
2022-07-27T11:16:23.865Z,88.60
2022-07-27T11:18:58.088Z,88.10
2022-07-27T11:21:26.877Z,90.40
2022-07-27T11:23:55.765Z,90.20
2022-07-27T11:26:24.214Z,90.20
2022-07-27T11:28:53.376Z,90.00
2022-07-27T11:31:45.241Z,90.10
2022-07-27T11:34:10.450Z,90.30
2022-07-27T11:36:39.750Z,90.50
2022-07-27T11:39:14.561Z,90.70
2022-07-27T11:44:33.283Z,90.30
2022-07-27T11:47:02.520Z,90.20
2022-07-27T11:49:31.359Z,90.70
2022-07-27T11:52:00.507Z,90.60
2022-07-27T11:54:29.159Z,90.50
2022-07-27T11:56:57.763Z,91.60
2022-07-27T11:59:27.367Z,91.10
2022-07-27T12:01:58.909Z,90.80
2022-07-27T12:04:27.576Z,91.20
2022-07-27T12:07:03.630Z,90.80
2022-07-27T12:09:36.815Z,91.00
2022-07-27T12:12:11.006Z,90.70
2022-07-27T12:14:39.225Z,91.20
2022-07-27T12:17:15.895Z,90.30
2022-07-27T12:19:43.773Z,90.40
2022-07-27T12:22:11.475Z,90.60
2022-07-27T12:24:40.548Z,90.40
2022-07-27T12:27:09.826Z,90.00
2022-07-27T12:29:57.113Z,90.50
2022-07-27T12:32:26.540Z,90.60
2022-07-27T12:34:54.987Z,90.50
2022-07-27T12:37:23.033Z,91.00
2022-07-27T12:39:51.005Z,89.80
2022-07-27T12:42:18.733Z,91.20
2022-07-27T12:44:46.922Z,87.90
2022-07-27T12:47:32.076Z,87.20
2022-07-27T12:50:01.782Z,87.70
2022-07-27T12:52:29.692Z,87.50
2022-07-27T12:54:57.661Z,87.60
2022-07-27T12:57:46.674Z,88.30
2022-07-27T13:00:15.298Z,88.00
2022-07-27T13:02:43.150Z,90.40
2022-07-27T13:05:13.804Z,90.00
2022-07-27T13:07:43.056Z,89.60
2022-07-27T13:10:11.569Z,89.80
2022-07-27T13:12:39.712Z,88.80
2022-07-27T13:15:09.055Z,88.80
2022-07-27T13:17:37.059Z,89.40
2022-07-27T13:20:05.177Z,89.50
2022-07-27T13:22:34.905Z,89.30
2022-07-27T13:25:02.715Z,88.80
2022-07-27T13:27:43.788Z,87.00
2022-07-27T13:30:13.154Z,87.90
2022-07-27T13:32:41.738Z,85.90
2022-07-27T13:35:10.125Z,83.90
2022-07-27T13:37:39.239Z,84.20
2022-07-27T13:40:07.672Z,86.10
2022-07-27T13:42:35.548Z,85.20
2022-07-27T13:45:10.002Z,85.10
2022-07-27T13:47:38.753Z,85.40
2022-07-27T13:50:13.314Z,87.40
2022-07-27T13:52:46.905Z,88.10
2022-07-27T13:55:15.108Z,87.40
2022-07-27T13:57:42.872Z,86.80
2022-07-27T14:00:11.240Z,86.00
2022-07-27T14:02:39.777Z,86.80
2022-07-27T14:05:09.191Z,86.90
2022-07-27T14:08:00.627Z,85.50
2022-07-27T14:10:39.662Z,84.60
2022-07-27T14:13:09.031Z,83.70
2022-07-27T14:15:53.056Z,84.70
2022-07-27T14:18:22.862Z,82.80
2022-07-27T14:20:50.582Z,82.60
2022-07-27T14:23:19.610Z,81.30
2022-07-27T14:25:47.486Z,81.50
2022-07-27T14:28:16.036Z,79.20
2022-07-27T14:30:43.855Z,79.30
2022-07-27T14:33:11.680Z,79.10
2022-07-27T14:35:40.934Z,80.00
2022-07-27T14:38:09.234Z,80.00
2022-07-27T14:40:38.347Z,80.60
2022-07-27T14:43:06.284Z,80.30
2022-07-27T14:45:45.236Z,80.20
2022-07-27T14:48:20.348Z,80.10
2022-07-27T14:50:48.967Z,80.10
2022-07-27T14:53:16.711Z,80.80
2022-07-27T14:55:45.724Z,79.40
2022-07-27T14:58:13.400Z,78.90
2022-07-27T15:00:41.274Z,78.80
2022-07-27T15:03:08.956Z,78.00
2022-07-27T15:05:49.722Z,77.50
2022-07-27T15:08:18.642Z,78.20
2022-07-27T15:10:48.072Z,79.70
2022-07-27T15:13:15.950Z,79.20
2022-07-27T15:15:43.931Z,78.70
2022-07-27T15:18:11.702Z,78.00
2022-07-27T15:20:39.428Z,79.30
2022-07-27T15:23:07.216Z,79.10
2022-07-27T15:25:34.935Z,76.70
2022-07-27T15:28:04.067Z,76.80
2022-07-27T15:30:37.862Z,75.70
2022-07-27T15:33:06.689Z,75.60
2022-07-27T15:35:34.595Z,75.80
2022-07-27T15:38:02.320Z,75.30
2022-07-27T15:40:41.403Z,75.80
2022-07-27T15:43:11.784Z,75.50
2022-07-27T15:45:40.243Z,75.50
2022-07-27T15:48:09.351Z,75.10
2022-07-27T15:50:37.454Z,75.60
2022-07-27T15:53:05.744Z,75.90
2022-07-27T15:55:33.689Z,77.20
2022-07-27T15:58:01.638Z,76.30
2022-07-27T16:00:34.219Z,76.20
2022-07-27T16:03:05.806Z,76.50
2022-07-27T16:05:33.892Z,77.30
2022-07-27T16:08:01.623Z,76.50
2022-07-27T16:10:29.924Z,77.40
2022-07-27T16:13:00.391Z,77.40
2022-07-27T16:15:42.484Z,76.50
2022-07-27T16:18:12.391Z,77.10
2022-07-27T16:20:40.438Z,77.80
2022-07-27T16:23:18.601Z,77.60
2022-07-27T16:26:07.607Z,77.70
2022-07-27T16:28:38.457Z,78.20
2022-07-27T16:31:06.582Z,78.70
2022-07-27T16:33:35.706Z,78.20
2022-07-27T16:36:03.774Z,78.10
2022-07-27T16:38:31.473Z,79.20
2022-07-27T16:40:59.173Z,78.40
2022-07-27T16:43:37.995Z,78.30
2022-07-27T16:46:07.205Z,78.40
2022-07-27T16:48:42.395Z,78.40
2022-07-27T16:51:11.981Z,77.80
2022-07-27T16:53:39.743Z,78.60
2022-07-27T16:56:08.801Z,78.50
2022-07-27T16:58:36.651Z,78.10
2022-07-27T17:01:05.029Z,78.50
2022-07-27T17:03:32.755Z,78.40
2022-07-27T17:06:05.957Z,78.90
2022-07-27T17:08:34.540Z,78.80
2022-07-27T17:11:02.845Z,79.30
2022-07-27T17:13:34.071Z,78.60
2022-07-27T17:16:02.767Z,79.90
2022-07-27T17:18:34.209Z,79.80
2022-07-27T17:21:07.352Z,79.30
2022-07-27T17:23:38.082Z,79.10
2022-07-27T17:26:06.703Z,79.30
2022-07-27T17:28:36.576Z,78.90
2022-07-27T17:31:04.577Z,79.70
2022-07-27T17:33:32.398Z,80.60
2022-07-27T17:36:00.500Z,80.50
2022-07-27T17:38:29.607Z,80.70
2022-07-27T17:40:57.589Z,81.20
2022-07-27T17:43:25.350Z,81.40
2022-07-27T17:45:53.183Z,81.40
2022-07-27T17:48:21.112Z,81.20
2022-07-27T17:50:48.892Z,81.90
2022-07-27T17:53:16.626Z,82.10
2022-07-27T17:55:45.711Z,81.60
2022-07-27T17:58:14.293Z,81.90
2022-07-27T18:00:42.084Z,81.60
2022-07-27T18:03:12.571Z,81.80
2022-07-27T18:05:40.703Z,81.80
2022-07-27T18:08:08.726Z,82.00
2022-07-27T18:10:38.662Z,81.90
2022-07-27T18:13:08.128Z,81.90
2022-07-27T18:15:48.785Z,81.80
2022-07-27T18:18:17.264Z,82.40
2022-07-27T18:20:46.104Z,82.40
2022-07-27T18:23:14.084Z,82.60
2022-07-27T18:25:42.164Z,82.80
2022-07-27T18:28:11.252Z,82.50
2022-07-27T18:30:39.031Z,82.10
2022-07-27T18:33:06.835Z,82.80
2022-07-27T18:35:34.571Z,83.20
2022-07-27T18:38:02.326Z,83.70
2022-07-27T18:40:30.167Z,84.30
2022-07-27T18:42:57.877Z,84.20
2022-07-27T18:45:34.687Z,84.70
2022-07-27T18:48:02.841Z,85.60
2022-07-27T18:50:33.358Z,84.10
2022-07-27T18:53:03.583Z,85.70
2022-07-27T18:55:31.299Z,85.50
2022-07-27T18:57:59.028Z,85.40
2022-07-27T19:00:28.438Z,86.00
2022-07-27T19:02:58.187Z,86.10
2022-07-27T19:05:32.319Z,86.40
2022-07-27T19:08:11.376Z,86.50
2022-07-27T19:10:41.489Z,85.60
2022-07-27T19:13:09.202Z,86.90
2022-07-27T19:15:38.553Z,87.00
2022-07-27T19:18:06.605Z,87.10
2022-07-27T19:20:36.152Z,87.10
2022-07-27T19:23:04.124Z,87.30
2022-07-27T19:25:33.555Z,87.20
2022-07-27T19:28:01.414Z,88.10
2022-07-27T19:30:29.261Z,88.50
2022-07-27T19:32:58.440Z,89.90
2022-07-27T19:35:26.143Z,89.50
2022-07-27T19:37:53.883Z,90.10
2022-07-27T19:43:09.606Z,90.70
2022-07-27T19:45:37.352Z,90.40
2022-07-27T19:48:08.126Z,90.50
2022-07-27T19:50:36.064Z,90.70
2022-07-27T19:53:04.194Z,90.80
2022-07-27T19:55:31.983Z,90.30
2022-07-27T19:57:59.770Z,90.60
2022-07-27T20:00:27.570Z,91.00
2022-07-27T20:02:55.381Z,90.40
2022-07-27T20:05:24.693Z,91.30
2022-07-27T20:07:52.430Z,91.00
2022-07-27T20:10:21.545Z,90.90
2022-07-27T20:12:49.305Z,90.90
2022-07-27T20:15:17.031Z,90.80
2022-07-27T20:17:44.782Z,91.00
2022-07-27T20:20:13.462Z,91.40
2022-07-27T20:22:42.640Z,91.30
2022-07-27T20:25:10.899Z,91.60
2022-07-27T20:27:38.943Z,91.00
2022-07-27T20:30:07.285Z,91.00
2022-07-27T20:32:35.034Z,91.20
2022-07-27T20:35:03.480Z,91.10
2022-07-27T20:37:31.246Z,91.40
2022-07-27T20:40:00.303Z,91.50
2022-07-27T20:42:28.035Z,91.40
2022-07-27T20:44:55.872Z,91.50
2022-07-27T20:47:23.559Z,91.60
2022-07-27T20:49:51.363Z,91.40
2022-07-27T20:52:19.102Z,91.40
2022-07-27T20:54:46.844Z,91.40
2022-07-27T20:57:16.061Z,91.40
2022-07-27T20:59:43.768Z,91.50
2022-07-27T21:02:11.511Z,92.70
2022-07-27T21:04:39.250Z,91.10
2022-07-27T21:07:06.964Z,91.10
2022-07-27T21:09:34.653Z,91.30
2022-07-27T21:12:02.536Z,91.00
2022-07-27T21:14:31.649Z,91.10
2022-07-27T21:16:59.423Z,91.60
2022-07-27T21:19:27.236Z,90.80
2022-07-27T21:21:54.933Z,90.80
2022-07-27T21:24:22.865Z,90.60
2022-07-27T21:26:52.115Z,91.10
2022-07-27T21:29:20.400Z,90.70
2022-07-27T21:31:50.378Z,90.60
2022-07-27T21:34:19.623Z,90.40
2022-07-27T21:36:47.821Z,90.40
2022-07-27T21:39:15.618Z,90.50
2022-07-27T21:41:43.377Z,90.50
2022-07-27T21:44:11.604Z,90.40
2022-07-27T21:46:39.656Z,90.50
2022-07-27T21:49:10.147Z,90.40
2022-07-27T21:51:38.077Z,90.50
2022-07-27T21:54:06.179Z,90.50
2022-07-27T21:56:41.066Z,90.50
2022-07-27T21:59:10.203Z,90.40
2022-07-27T22:01:37.962Z,90.50
2022-07-27T22:04:06.180Z,90.50
2022-07-27T22:06:35.812Z,91.00
2022-07-27T22:09:03.593Z,90.70
2022-07-27T22:11:31.299Z,90.80
2022-07-27T22:13:59.052Z,90.60
2022-07-27T22:16:26.917Z,90.70
2022-07-27T22:18:55.316Z,90.70
2022-07-27T22:21:23.112Z,90.80
2022-07-27T22:23:52.186Z,91.00
2022-07-27T22:26:20.057Z,91.40
2022-07-27T22:28:47.761Z,91.20
2022-07-27T22:31:22.487Z,91.00
2022-07-27T22:33:50.985Z,91.00
2022-07-27T22:36:18.776Z,91.10
2022-07-27T22:38:46.468Z,91.10
2022-07-27T22:41:15.544Z,91.20
2022-07-27T22:43:43.286Z,91.10
2022-07-27T22:46:11.095Z,91.30
2022-07-27T22:48:39.115Z,91.30
2022-07-27T22:51:07.682Z,91.30
2022-07-27T22:53:35.476Z,91.40
2022-07-27T22:56:03.161Z,91.30
2022-07-27T22:58:32.229Z,91.40
2022-07-27T23:01:00.200Z,91.40
2022-07-27T23:03:28.105Z,91.50
2022-07-27T23:05:55.868Z,91.50
2022-07-27T23:08:23.616Z,91.50
2022-07-27T23:10:51.321Z,91.30
2022-07-27T23:13:19.496Z,91.50
2022-07-27T23:15:48.600Z,91.90
2022-07-27T23:18:16.662Z,91.50
2022-07-27T23:20:44.843Z,91.40
2022-07-27T23:23:16.319Z,91.50
2022-07-27T23:25:44.824Z,91.60
2022-07-27T23:28:12.539Z,91.60
2022-07-27T23:30:40.439Z,91.60
2022-07-27T23:33:09.809Z,92.10
2022-07-27T23:35:37.551Z,91.60
2022-07-27T23:38:05.266Z,91.60
2022-07-27T23:40:33.109Z,91.70
2022-07-27T23:43:00.823Z,91.80
2022-07-27T23:45:28.644Z,91.80
2022-07-27T23:47:56.544Z,92.10
2022-07-27T23:50:25.707Z,91.80
2022-07-27T23:52:53.395Z,91.80
2022-07-27T23:55:21.231Z,91.90
2022-07-27T23:57:48.995Z,91.90
